createdAt,value
2023-05-21T00:00:02.250Z,37.76
2023-05-21T00:01:02.206Z,37.70
2023-05-21T00:02:02.162Z,37.63
2023-05-21T00:03:02.221Z,37.54
2023-05-21T00:04:02.150Z,37.48
2023-05-21T00:05:02.030Z,37.43
2023-05-21T00:06:02.031Z,37.36
2023-05-21T00:07:01.947Z,37.30
2023-05-21T00:08:01.902Z,37.22
2023-05-21T00:09:01.858Z,37.15
2023-05-21T00:10:01.805Z,37.13
2023-05-21T00:11:01.784Z,37.07
2023-05-21T00:12:01.765Z,37.02
2023-05-21T00:13:01.666Z,36.98
2023-05-21T00:14:01.617Z,36.93
2023-05-21T00:15:01.584Z,36.91
2023-05-21T00:16:01.556Z,36.83
2023-05-21T00:17:01.492Z,36.80
2023-05-21T00:18:01.449Z,36.78
2023-05-21T00:19:01.406Z,36.72
2023-05-21T00:20:01.380Z,36.68
2023-05-21T00:21:01.317Z,36.66
2023-05-21T00:22:01.264Z,36.64
2023-05-21T00:23:01.204Z,36.62
2023-05-21T00:24:01.159Z,36.60
2023-05-21T00:25:01.167Z,36.59
2023-05-21T00:26:01.060Z,36.58
2023-05-21T00:27:01.044Z,36.55
2023-05-21T00:28:00.996Z,36.51
2023-05-21T00:29:00.920Z,36.51
2023-05-21T00:30:00.879Z,36.49
2023-05-21T00:31:00.825Z,36.47
2023-05-21T00:32:00.829Z,36.44
2023-05-21T00:33:00.766Z,36.43
2023-05-21T00:34:00.711Z,36.44
2023-05-21T00:35:00.667Z,36.43
2023-05-21T00:36:00.636Z,36.41
2023-05-21T00:37:00.608Z,36.41
2023-05-21T00:38:00.581Z,36.42
2023-05-21T00:39:00.580Z,36.41
2023-05-21T00:40:00.532Z,36.41
2023-05-21T00:41:00.517Z,36.38
2023-05-21T00:42:00.495Z,36.41
2023-05-21T00:43:00.465Z,36.38
2023-05-21T00:44:00.469Z,36.39
2023-05-21T00:45:00.431Z,36.37
2023-05-21T00:46:00.470Z,36.37
2023-05-21T00:47:00.388Z,36.36
2023-05-21T00:48:00.367Z,36.37
2023-05-21T00:49:00.325Z,36.35
2023-05-21T00:50:00.328Z,36.38
2023-05-21T00:51:00.273Z,36.34
2023-05-21T00:52:00.266Z,36.35
2023-05-21T00:53:00.219Z,36.34
2023-05-21T00:54:00.194Z,36.32
2023-05-21T00:55:00.163Z,36.31
2023-05-21T00:56:00.159Z,36.34
2023-05-21T00:57:00.132Z,36.34
2023-05-21T00:58:00.093Z,36.32
2023-05-21T00:59:00.057Z,36.29
2023-05-21T01:00:00.034Z,36.31
2023-05-21T01:00:59.997Z,36.31
2023-05-21T01:01:59.984Z,36.30
2023-05-21T01:03:00.040Z,36.34
2023-05-21T01:03:59.913Z,36.30
2023-05-21T01:04:59.859Z,36.29
2023-05-21T01:05:59.871Z,36.29
2023-05-21T01:06:59.780Z,36.28
2023-05-21T01:07:59.745Z,36.29
2023-05-21T01:08:59.714Z,36.29
2023-05-21T01:09:59.671Z,36.30
2023-05-21T01:10:59.640Z,36.28
2023-05-21T01:11:59.596Z,36.27
2023-05-21T01:12:59.566Z,36.27
2023-05-21T01:13:59.529Z,36.28
2023-05-21T01:14:59.492Z,36.28
2023-05-21T01:15:59.508Z,36.29
2023-05-21T01:16:59.476Z,36.26
2023-05-21T01:17:59.455Z,36.26
2023-05-21T01:18:59.517Z,36.27
2023-05-21T01:19:59.405Z,36.28
2023-05-21T01:20:59.349Z,36.28
2023-05-21T01:21:59.331Z,36.28
2023-05-21T01:22:59.300Z,36.28
2023-05-21T01:23:59.256Z,36.28
2023-05-21T01:24:59.231Z,36.28
2023-05-21T01:25:59.203Z,36.27
2023-05-21T01:26:59.176Z,36.28
2023-05-21T01:27:59.155Z,36.28
2023-05-21T01:28:59.149Z,36.30
2023-05-21T01:29:59.096Z,36.28
2023-05-21T01:30:59.058Z,36.29
2023-05-21T01:31:59.047Z,36.29
2023-05-21T01:32:59.082Z,36.27
2023-05-21T01:33:59.091Z,36.28
2023-05-21T01:34:58.925Z,36.25
2023-05-21T01:35:58.937Z,36.30
2023-05-21T01:36:58.857Z,36.28
2023-05-21T01:37:58.825Z,36.28
2023-05-21T01:38:58.797Z,36.26
2023-05-21T01:39:58.761Z,36.25
2023-05-21T01:40:58.778Z,36.28
2023-05-21T01:41:58.726Z,36.28
2023-05-21T01:42:58.681Z,36.28
2023-05-21T01:43:58.658Z,36.26
2023-05-21T01:44:58.613Z,36.28
2023-05-21T01:45:58.611Z,36.28
2023-05-21T01:46:58.555Z,36.28
2023-05-21T01:47:58.618Z,36.28
2023-05-21T01:48:58.491Z,36.29
2023-05-21T01:49:58.457Z,36.27
2023-05-21T01:50:58.423Z,36.29
2023-05-21T01:51:58.391Z,36.28
2023-05-21T01:52:58.367Z,36.29
2023-05-21T01:53:58.331Z,36.30
2023-05-21T01:54:58.300Z,36.29
2023-05-21T01:55:58.269Z,36.28
2023-05-21T01:56:58.244Z,36.27
2023-05-21T01:57:59.423Z,36.28
2023-05-21T01:58:58.162Z,36.31
2023-05-21T01:59:58.100Z,36.28
2023-05-21T02:00:58.047Z,36.30
2023-05-21T02:01:58.063Z,36.31
2023-05-21T02:02:58.000Z,36.29
2023-05-21T02:03:58.041Z,36.26
2023-05-21T02:04:57.852Z,36.28
2023-05-21T02:05:57.807Z,36.28
2023-05-21T02:06:57.814Z,36.27
2023-05-21T02:07:57.715Z,36.28
2023-05-21T02:08:57.644Z,36.28
2023-05-21T02:09:57.613Z,36.30
2023-05-21T02:10:57.572Z,36.29
2023-05-21T02:11:57.511Z,36.30
2023-05-21T02:12:57.461Z,36.29
2023-05-21T02:13:57.539Z,36.30
2023-05-21T02:14:57.381Z,36.30
2023-05-21T02:15:57.366Z,36.26
2023-05-21T02:16:57.282Z,36.28
2023-05-21T02:17:57.273Z,36.28
2023-05-21T02:18:57.382Z,36.28
2023-05-21T02:19:57.190Z,36.29
2023-05-21T02:20:57.119Z,36.28
2023-05-21T02:21:57.068Z,36.29
2023-05-21T02:22:57.026Z,36.30
2023-05-21T02:23:56.988Z,36.29
2023-05-21T02:24:56.949Z,36.32
2023-05-21T02:25:56.902Z,36.32
2023-05-21T02:26:56.850Z,36.30
2023-05-21T02:27:56.894Z,36.30
2023-05-21T02:28:56.773Z,36.31
2023-05-21T02:29:56.731Z,36.30
2023-05-21T02:30:56.674Z,36.28
2023-05-21T02:31:56.640Z,36.29
2023-05-21T02:32:56.623Z,36.31
2023-05-21T02:33:56.601Z,36.30
2023-05-21T02:34:56.490Z,36.30
2023-05-21T02:35:56.472Z,36.32
2023-05-21T02:36:56.382Z,36.33
2023-05-21T02:37:56.337Z,36.30
2023-05-21T02:38:56.286Z,36.30
2023-05-21T02:39:56.259Z,36.30
2023-05-21T02:40:56.194Z,36.32
2023-05-21T02:41:56.147Z,36.32
2023-05-21T02:42:56.097Z,36.32
2023-05-21T02:43:56.035Z,36.32
2023-05-21T02:44:56.003Z,36.34
2023-05-21T02:45:55.984Z,36.32
2023-05-21T02:46:55.903Z,36.32
2023-05-21T02:47:55.900Z,36.31
2023-05-21T02:48:55.809Z,36.33
2023-05-21T02:49:55.762Z,36.32
2023-05-21T02:50:55.732Z,36.30
2023-05-21T02:51:55.691Z,36.30
2023-05-21T02:52:55.604Z,36.30
2023-05-21T02:53:55.564Z,36.33
2023-05-21T02:54:55.516Z,36.32
2023-05-21T02:55:55.501Z,36.32
2023-05-21T02:56:55.474Z,36.32
2023-05-21T02:57:55.453Z,36.31
2023-05-21T02:58:55.470Z,36.32
2023-05-21T02:59:55.412Z,36.32
2023-05-21T03:00:55.402Z,36.32
2023-05-21T03:01:55.360Z,36.32
2023-05-21T03:02:55.458Z,36.33
2023-05-21T03:03:55.355Z,36.33
2023-05-21T03:04:55.313Z,36.30
2023-05-21T03:05:55.304Z,36.32
2023-05-21T03:06:55.279Z,36.29
2023-05-21T03:07:55.279Z,36.30
2023-05-21T03:08:55.238Z,36.32
2023-05-21T03:09:55.264Z,36.30
2023-05-21T03:10:55.191Z,36.31
2023-05-21T03:11:55.191Z,36.32
2023-05-21T03:12:55.172Z,36.32
2023-05-21T03:13:55.149Z,36.32
2023-05-21T03:14:55.132Z,36.33
2023-05-21T03:15:55.116Z,36.32
2023-05-21T03:16:55.167Z,36.32
2023-05-21T03:17:55.107Z,36.34
2023-05-21T03:18:55.115Z,36.33
2023-05-21T03:19:55.075Z,36.31
2023-05-21T03:20:55.035Z,36.33
2023-05-21T03:21:55.024Z,36.33
2023-05-21T03:22:55.007Z,36.33
2023-05-21T03:23:55.011Z,36.32
2023-05-21T03:24:54.954Z,36.32
2023-05-21T03:25:54.944Z,36.33
2023-05-21T03:26:54.936Z,36.32
2023-05-21T03:27:54.913Z,36.31
2023-05-21T03:28:54.899Z,36.29
2023-05-21T03:29:54.883Z,36.34
2023-05-21T03:30:54.870Z,36.34
2023-05-21T03:31:54.890Z,36.31
2023-05-21T03:32:54.856Z,36.35
2023-05-21T03:33:54.843Z,36.34
2023-05-21T03:34:54.847Z,36.33
2023-05-21T03:35:54.801Z,36.32
2023-05-21T03:36:54.787Z,36.32
2023-05-21T03:37:54.771Z,36.32
2023-05-21T03:38:54.763Z,36.33
2023-05-21T03:39:54.809Z,36.31
2023-05-21T03:40:54.707Z,36.32
2023-05-21T03:41:54.688Z,36.33
2023-05-21T03:42:54.678Z,36.31
2023-05-21T03:43:54.685Z,36.33
2023-05-21T03:44:54.635Z,36.30
2023-05-21T03:45:54.624Z,36.34
2023-05-21T03:46:54.593Z,36.31
2023-05-21T03:47:54.626Z,36.34
2023-05-21T03:48:54.591Z,36.33
2023-05-21T03:49:54.539Z,36.33
2023-05-21T03:50:54.512Z,36.31
2023-05-21T03:51:54.499Z,36.32
2023-05-21T03:52:54.507Z,36.30
2023-05-21T03:53:54.462Z,36.34
2023-05-21T03:54:54.455Z,36.33
2023-05-21T03:55:54.462Z,36.30
2023-05-21T03:56:55.512Z,36.32
2023-05-21T03:57:54.403Z,36.32
2023-05-21T03:58:54.378Z,36.31
2023-05-21T03:59:54.363Z,36.33
2023-05-21T04:00:54.344Z,36.32
2023-05-21T04:01:54.333Z,36.32
2023-05-21T04:02:54.356Z,36.35
2023-05-21T04:03:54.422Z,36.32
2023-05-21T04:04:54.311Z,36.33
2023-05-21T04:05:54.260Z,36.32
2023-05-21T04:06:54.233Z,36.34
2023-05-21T04:07:54.227Z,36.32
2023-05-21T04:08:54.210Z,36.32
2023-05-21T04:09:54.192Z,36.32
2023-05-21T04:10:54.170Z,36.33
2023-05-21T04:11:54.175Z,36.33
2023-05-21T04:12:54.135Z,36.32
2023-05-21T04:13:54.123Z,36.33
2023-05-21T04:14:54.098Z,36.33
2023-05-21T04:15:54.115Z,36.31
2023-05-21T04:16:54.067Z,36.31
2023-05-21T04:17:54.098Z,36.32
2023-05-21T04:18:54.036Z,36.32
2023-05-21T04:19:54.015Z,36.32
2023-05-21T04:20:54.015Z,36.33
2023-05-21T04:21:53.994Z,36.34
2023-05-21T04:22:53.970Z,36.32
2023-05-21T04:23:53.977Z,36.32
2023-05-21T04:24:53.941Z,36.32
2023-05-21T04:25:53.928Z,36.33
2023-05-21T04:26:53.917Z,36.32
2023-05-21T04:27:53.931Z,36.31
2023-05-21T04:28:53.893Z,36.31
2023-05-21T04:29:53.871Z,36.31
2023-05-21T04:30:54.016Z,36.32
2023-05-21T04:31:53.844Z,36.30
2023-05-21T04:32:53.869Z,36.32
2023-05-21T04:33:53.819Z,36.31
2023-05-21T04:34:53.794Z,36.32
2023-05-21T04:35:53.790Z,36.33
2023-05-21T04:36:53.771Z,36.31
2023-05-21T04:37:53.744Z,36.33
2023-05-21T04:38:53.731Z,36.33
2023-05-21T04:39:53.717Z,36.31
2023-05-21T04:40:53.721Z,36.31
2023-05-21T04:41:53.677Z,36.32
2023-05-21T04:42:53.661Z,36.31
2023-05-21T04:43:53.666Z,36.32
2023-05-21T04:44:53.620Z,36.28
2023-05-21T04:45:53.698Z,36.29
2023-05-21T04:46:53.638Z,36.30
2023-05-21T04:47:53.598Z,36.30
2023-05-21T04:48:53.566Z,36.31
2023-05-21T04:49:53.611Z,36.31
2023-05-21T04:50:53.602Z,36.33
2023-05-21T04:51:53.520Z,36.33
2023-05-21T04:52:53.506Z,36.30
2023-05-21T04:53:53.482Z,36.32
2023-05-21T04:54:53.469Z,36.31
2023-05-21T04:55:53.450Z,36.33
2023-05-21T04:56:53.427Z,36.32
2023-05-21T04:57:53.435Z,36.30
2023-05-21T04:58:53.389Z,36.31
2023-05-21T04:59:53.432Z,36.31
2023-05-21T05:00:53.400Z,36.29
2023-05-21T05:01:53.344Z,36.33
2023-05-21T05:02:53.446Z,36.32
2023-05-21T05:03:53.387Z,36.31
2023-05-21T05:04:53.297Z,36.32
2023-05-21T05:05:53.276Z,36.33
2023-05-21T05:06:53.288Z,36.31
2023-05-21T05:07:53.246Z,36.29
2023-05-21T05:08:53.237Z,36.31
2023-05-21T05:09:53.202Z,36.30
2023-05-21T05:10:53.216Z,36.28
2023-05-21T05:11:53.188Z,36.31
2023-05-21T05:12:53.201Z,36.28
2023-05-21T05:13:53.135Z,36.29
2023-05-21T05:14:53.109Z,36.28
2023-05-21T05:15:54.558Z,36.29
2023-05-21T05:16:53.308Z,36.30
2023-05-21T05:17:53.277Z,36.29
2023-05-21T05:18:53.297Z,36.30
2023-05-21T05:19:53.228Z,36.28
2023-05-21T05:20:53.205Z,36.29
2023-05-21T05:21:53.182Z,36.29
2023-05-21T05:22:53.197Z,36.29
2023-05-21T05:23:53.122Z,36.29
2023-05-21T05:24:53.105Z,36.29
2023-05-21T05:25:53.094Z,36.29
2023-05-21T05:26:53.066Z,36.29
2023-05-21T05:27:53.048Z,36.29
2023-05-21T05:28:53.064Z,36.30
2023-05-21T05:29:53.016Z,36.29
2023-05-21T05:30:53.065Z,36.29
2023-05-21T05:31:53.032Z,36.30
2023-05-21T05:32:53.025Z,36.28
2023-05-21T05:33:52.971Z,36.30
2023-05-21T05:34:52.958Z,36.28
2023-05-21T05:35:52.933Z,36.29
2023-05-21T05:36:52.916Z,36.30
2023-05-21T05:37:52.912Z,36.28
2023-05-21T05:38:52.899Z,36.28
2023-05-21T05:39:52.876Z,36.28
2023-05-21T05:40:52.855Z,36.29
2023-05-21T05:41:52.831Z,36.26
2023-05-21T05:42:52.810Z,36.28
2023-05-21T05:43:52.786Z,36.30
2023-05-21T05:44:52.764Z,36.31
2023-05-21T05:45:52.765Z,36.30
2023-05-21T05:46:52.764Z,36.29
2023-05-21T05:47:52.769Z,36.30
2023-05-21T05:48:52.693Z,36.30
2023-05-21T05:49:52.673Z,36.30
2023-05-21T05:50:52.712Z,36.30
2023-05-21T05:51:52.632Z,36.27
2023-05-21T05:52:52.624Z,36.28
2023-05-21T05:53:52.602Z,36.30
2023-05-21T05:54:52.588Z,36.30
2023-05-21T05:55:52.583Z,36.28
2023-05-21T05:56:52.544Z,36.28
2023-05-21T05:57:52.540Z,36.26
2023-05-21T05:58:52.507Z,36.31
2023-05-21T05:59:52.483Z,36.29
2023-05-21T06:00:52.483Z,36.29
2023-05-21T06:01:52.465Z,36.28
2023-05-21T06:02:52.535Z,36.29
2023-05-21T06:03:52.471Z,36.27
2023-05-21T06:04:52.389Z,36.29
2023-05-21T06:05:52.483Z,36.30
2023-05-21T06:06:52.351Z,36.29
2023-05-21T06:07:52.328Z,36.28
2023-05-21T06:08:52.303Z,36.28
2023-05-21T06:09:52.307Z,36.28
2023-05-21T06:10:52.376Z,36.28
2023-05-21T06:11:52.245Z,36.30
2023-05-21T06:12:52.211Z,36.28
2023-05-21T06:13:52.192Z,36.30
2023-05-21T06:14:52.170Z,36.30
2023-05-21T06:15:52.184Z,36.27
2023-05-21T06:16:52.129Z,36.27
2023-05-21T06:17:52.132Z,36.29
2023-05-21T06:18:52.089Z,36.27
2023-05-21T06:19:52.081Z,36.24
2023-05-21T06:20:52.025Z,36.26
2023-05-21T06:21:51.983Z,36.27
2023-05-21T06:22:51.969Z,36.27
2023-05-21T06:23:51.934Z,36.28
2023-05-21T06:24:51.947Z,36.27
2023-05-21T06:25:51.910Z,36.28
2023-05-21T06:26:51.866Z,36.28
2023-05-21T06:27:51.843Z,36.28
2023-05-21T06:28:51.822Z,36.26
2023-05-21T06:29:51.812Z,36.28
2023-05-21T06:30:51.777Z,36.26
2023-05-21T06:31:51.760Z,36.25
2023-05-21T06:32:51.790Z,36.25
2023-05-21T06:33:51.767Z,36.26
2023-05-21T06:34:51.635Z,36.26
2023-05-21T06:35:51.647Z,36.25
2023-05-21T06:36:51.601Z,36.26
2023-05-21T06:37:51.568Z,36.27
2023-05-21T06:38:51.563Z,36.25
2023-05-21T06:39:51.529Z,36.24
2023-05-21T06:40:51.497Z,36.24
2023-05-21T06:41:51.476Z,36.25
2023-05-21T06:42:51.495Z,36.26
2023-05-21T06:43:51.451Z,36.26
2023-05-21T06:44:51.390Z,36.26
2023-05-21T06:45:51.412Z,36.25
2023-05-21T06:46:51.350Z,36.24
2023-05-21T06:47:51.342Z,36.26
2023-05-21T06:48:51.280Z,36.28
2023-05-21T06:49:51.250Z,36.27
2023-05-21T06:50:51.239Z,36.28
2023-05-21T06:51:51.230Z,36.26
2023-05-21T06:52:51.173Z,36.27
2023-05-21T06:53:51.154Z,36.25
2023-05-21T06:54:51.132Z,36.26
2023-05-21T06:55:51.087Z,36.24
2023-05-21T06:56:51.062Z,36.25
2023-05-21T06:57:51.031Z,36.24
2023-05-21T06:58:51.003Z,36.26
2023-05-21T06:59:50.976Z,36.25
2023-05-21T07:00:50.970Z,36.27
2023-05-21T07:01:50.916Z,36.23
2023-05-21T07:02:50.951Z,36.24
2023-05-21T07:03:50.876Z,36.23
2023-05-21T07:04:50.832Z,36.25
2023-05-21T07:05:50.788Z,36.24
2023-05-21T07:06:50.776Z,36.24
2023-05-21T07:07:50.759Z,36.23
2023-05-21T07:08:50.758Z,36.25
2023-05-21T07:09:50.686Z,36.25
2023-05-21T07:10:50.648Z,36.25
2023-05-21T07:11:50.618Z,36.25
2023-05-21T07:12:50.618Z,36.27
2023-05-21T07:13:50.564Z,36.28
2023-05-21T07:14:50.556Z,36.24
2023-05-21T07:15:50.510Z,36.27
2023-05-21T07:16:50.525Z,36.25
2023-05-21T07:17:50.511Z,36.25
2023-05-21T07:18:50.470Z,36.24
2023-05-21T07:19:50.402Z,36.26
2023-05-21T07:20:50.405Z,36.27
2023-05-21T07:21:50.353Z,36.25
2023-05-21T07:22:50.329Z,36.23
2023-05-21T07:23:50.330Z,36.25
2023-05-21T07:24:50.890Z,36.27
2023-05-21T07:25:50.303Z,36.28
2023-05-21T07:26:50.213Z,36.25
2023-05-21T07:27:50.188Z,36.23
2023-05-21T07:28:50.157Z,36.25
2023-05-21T07:29:50.134Z,36.27
2023-05-21T07:30:50.148Z,36.24
2023-05-21T07:31:50.066Z,36.26
2023-05-21T07:32:50.097Z,36.23
2023-05-21T07:33:50.028Z,36.25
2023-05-21T07:34:50.833Z,36.23
2023-05-21T07:35:50.096Z,36.26
2023-05-21T07:36:49.996Z,36.27
2023-05-21T07:37:49.993Z,36.28
2023-05-21T07:38:49.934Z,36.26
2023-05-21T07:39:49.931Z,36.26
2023-05-21T07:40:49.893Z,36.25
2023-05-21T07:41:49.837Z,36.26
2023-05-21T07:42:49.808Z,36.26
2023-05-21T07:43:49.780Z,36.24
2023-05-21T07:44:49.755Z,36.25
2023-05-21T07:45:49.753Z,36.27
2023-05-21T07:46:49.777Z,36.25
2023-05-21T07:47:49.759Z,36.26
2023-05-21T07:48:49.636Z,36.28
2023-05-21T07:49:49.604Z,36.26
2023-05-21T07:50:49.583Z,36.25
2023-05-21T07:51:49.559Z,36.27
2023-05-21T07:52:49.553Z,36.25
2023-05-21T07:53:49.506Z,36.27
2023-05-21T07:54:49.457Z,36.26
2023-05-21T07:55:49.456Z,36.26
2023-05-21T07:56:49.386Z,36.25
2023-05-21T07:57:49.356Z,36.25
2023-05-21T07:58:49.344Z,36.26
2023-05-21T07:59:49.292Z,36.27
2023-05-21T08:00:49.269Z,36.25
2023-05-21T08:01:49.232Z,36.25
2023-05-21T08:02:49.297Z,36.22
2023-05-21T08:03:49.293Z,36.25
2023-05-21T08:04:49.169Z,36.26
2023-05-21T08:05:49.194Z,36.28
2023-05-21T08:06:49.079Z,36.24
2023-05-21T08:07:49.064Z,36.26
2023-05-21T08:08:49.019Z,36.26
2023-05-21T08:09:48.995Z,36.25
2023-05-21T08:10:49.434Z,36.25
2023-05-21T08:11:49.048Z,36.25
2023-05-21T08:12:48.898Z,36.24
2023-05-21T08:13:48.856Z,36.22
2023-05-21T08:14:48.832Z,36.25
2023-05-21T08:15:50.601Z,36.24
2023-05-21T08:16:48.823Z,36.25
2023-05-21T08:17:48.755Z,36.24
2023-05-21T08:18:48.720Z,36.26
2023-05-21T08:19:48.617Z,36.25
2023-05-21T08:20:48.604Z,36.20
2023-05-21T08:21:50.227Z,36.23
2023-05-21T08:22:48.492Z,36.20
2023-05-21T08:23:48.436Z,36.24
2023-05-21T08:24:48.400Z,36.25
2023-05-21T08:25:48.369Z,36.21
2023-05-21T08:26:48.328Z,36.21
2023-05-21T08:27:49.493Z,36.21
2023-05-21T08:28:48.229Z,36.23
2023-05-21T08:29:48.201Z,36.20
2023-05-21T08:30:48.150Z,36.20
2023-05-21T08:31:48.117Z,36.20
2023-05-21T08:32:48.065Z,36.21
2023-05-21T08:33:48.021Z,36.20
2023-05-21T08:34:47.991Z,36.20
2023-05-21T08:35:47.941Z,36.20
2023-05-21T08:36:47.960Z,36.20
2023-05-21T08:37:47.853Z,36.24
2023-05-21T08:38:47.831Z,36.21
2023-05-21T08:39:47.774Z,36.21
2023-05-21T08:40:47.749Z,36.21
2023-05-21T08:41:47.702Z,36.20
2023-05-21T08:42:47.671Z,36.19
2023-05-21T08:43:50.004Z,36.20
2023-05-21T08:44:47.579Z,36.20
2023-05-21T08:45:47.571Z,36.20
2023-05-21T08:46:47.501Z,36.22
2023-05-21T08:47:47.509Z,36.20
2023-05-21T08:48:47.410Z,36.19
2023-05-21T08:49:47.365Z,36.18
2023-05-21T08:50:47.332Z,36.19
2023-05-21T08:51:47.300Z,36.23
2023-05-21T08:52:47.256Z,36.18
2023-05-21T08:53:47.212Z,36.19
2023-05-21T08:54:47.180Z,36.19
2023-05-21T08:55:47.171Z,36.17
2023-05-21T08:56:47.160Z,36.19
2023-05-21T08:57:47.073Z,36.20
2023-05-21T08:58:47.019Z,36.17
2023-05-21T08:59:47.042Z,36.20
2023-05-21T09:00:46.984Z,36.19
2023-05-21T09:01:46.982Z,36.19
2023-05-21T09:02:46.922Z,36.18
2023-05-21T09:03:46.924Z,36.16
2023-05-21T09:04:46.846Z,36.19
2023-05-21T09:05:46.778Z,36.17
2023-05-21T09:06:46.728Z,36.17
2023-05-21T09:07:46.666Z,36.17
2023-05-21T09:08:46.631Z,36.17
2023-05-21T09:09:46.632Z,36.16
2023-05-21T09:10:46.641Z,36.16
2023-05-21T09:11:46.668Z,36.17
2023-05-21T09:12:46.691Z,36.18
2023-05-21T09:13:46.735Z,36.18
2023-05-21T09:14:46.747Z,36.17
2023-05-21T09:15:46.803Z,36.16
2023-05-21T09:16:46.837Z,36.16
2023-05-21T09:17:46.866Z,36.14
2023-05-21T09:18:46.898Z,36.17
2023-05-21T09:19:46.882Z,36.14
2023-05-21T09:20:46.911Z,36.17
2023-05-21T09:21:46.947Z,36.15
2023-05-21T09:22:46.977Z,36.14
2023-05-21T09:23:47.013Z,36.15
2023-05-21T09:24:47.027Z,36.13
2023-05-21T09:25:47.058Z,36.13
2023-05-21T09:26:47.140Z,36.14
2023-05-21T09:27:47.107Z,36.13
2023-05-21T09:28:47.142Z,36.13
2023-05-21T09:29:47.163Z,36.13
2023-05-21T09:30:47.228Z,36.13
2023-05-21T09:31:47.856Z,36.13
2023-05-21T09:32:47.257Z,36.13
2023-05-21T09:33:47.267Z,36.11
2023-05-21T09:34:47.291Z,36.10
2023-05-21T09:35:47.339Z,36.13
2023-05-21T09:36:47.343Z,36.11
2023-05-21T09:37:47.383Z,36.10
2023-05-21T09:38:47.407Z,36.12
2023-05-21T09:39:47.439Z,36.12
2023-05-21T09:40:47.459Z,36.13
2023-05-21T09:41:47.490Z,36.10
2023-05-21T09:42:47.519Z,36.13
2023-05-21T09:43:47.545Z,36.12
2023-05-21T09:44:47.576Z,36.14
2023-05-21T09:45:47.604Z,36.10
2023-05-21T09:46:47.698Z,36.12
2023-05-21T09:47:47.701Z,36.09
2023-05-21T09:48:47.671Z,36.11
2023-05-21T09:49:47.699Z,36.12
2023-05-21T09:50:47.717Z,36.12
2023-05-21T09:51:47.743Z,36.11
2023-05-21T09:52:47.761Z,36.11
2023-05-21T09:53:47.780Z,36.11
2023-05-21T09:54:47.807Z,36.10
2023-05-21T09:55:47.844Z,36.13
2023-05-21T09:56:47.843Z,36.10
2023-05-21T09:57:50.477Z,36.13
2023-05-21T09:58:47.805Z,36.13
2023-05-21T09:59:47.763Z,36.11
2023-05-21T10:00:47.722Z,36.13
2023-05-21T10:01:47.734Z,36.14
2023-05-21T10:02:47.677Z,36.16
2023-05-21T10:03:49.316Z,36.14
2023-05-21T10:04:47.594Z,36.16
2023-05-21T10:05:47.503Z,36.12
2023-05-21T10:06:47.461Z,36.15
2023-05-21T10:07:47.419Z,36.12
2023-05-21T10:08:47.383Z,36.13
2023-05-21T10:09:47.349Z,36.14
2023-05-21T10:10:47.321Z,36.13
2023-05-21T10:11:47.259Z,36.12
2023-05-21T10:12:47.212Z,36.15
2023-05-21T10:13:47.160Z,36.15
2023-05-21T10:14:47.111Z,36.15
2023-05-21T10:15:48.282Z,36.13
2023-05-21T10:16:47.213Z,36.15
2023-05-21T10:17:47.022Z,36.12
2023-05-21T10:18:46.972Z,36.13
2023-05-21T10:19:46.914Z,36.14
2023-05-21T10:20:46.836Z,36.13
2023-05-21T10:21:46.795Z,36.12
2023-05-21T10:22:46.755Z,36.14
2023-05-21T10:23:46.699Z,36.14
2023-05-21T10:24:46.659Z,36.13
2023-05-21T10:25:46.605Z,36.16
2023-05-21T10:26:46.580Z,36.14
2023-05-21T10:27:46.544Z,36.14
2023-05-21T10:28:46.489Z,36.14
2023-05-21T10:29:46.453Z,36.16
2023-05-21T10:30:46.423Z,36.18
2023-05-21T10:31:46.420Z,36.14
2023-05-21T10:32:46.433Z,36.17
2023-05-21T10:33:46.273Z,36.17
2023-05-21T10:34:46.223Z,36.16
2023-05-21T10:35:46.316Z,36.17
2023-05-21T10:36:46.142Z,36.16
2023-05-21T10:37:46.120Z,36.16
2023-05-21T10:38:46.132Z,36.15
2023-05-21T10:39:46.158Z,36.14
2023-05-21T10:40:46.195Z,36.15
2023-05-21T10:41:46.276Z,36.15
2023-05-21T10:42:46.197Z,36.16
2023-05-21T10:43:46.209Z,36.15
2023-05-21T10:44:46.221Z,36.14
2023-05-21T10:45:46.361Z,36.15
2023-05-21T10:46:46.273Z,36.17
2023-05-21T10:47:46.293Z,36.16
2023-05-21T10:48:46.278Z,36.16
2023-05-21T10:49:46.300Z,36.17
2023-05-21T10:50:46.304Z,36.17
2023-05-21T10:51:46.350Z,36.16
2023-05-21T10:52:46.369Z,36.15
2023-05-21T10:53:46.363Z,36.15
2023-05-21T10:54:46.398Z,36.16
2023-05-21T10:55:46.439Z,36.15
2023-05-21T10:56:46.411Z,36.16
2023-05-21T10:57:46.412Z,36.15
2023-05-21T10:58:46.436Z,36.17
2023-05-21T10:59:46.442Z,36.18
2023-05-21T11:00:46.520Z,36.17
2023-05-21T11:01:46.593Z,36.17
2023-05-21T11:02:46.517Z,36.18
2023-05-21T11:03:46.550Z,36.18
2023-05-21T11:04:46.534Z,36.18
2023-05-21T11:05:46.547Z,36.16
2023-05-21T11:06:46.611Z,36.17
2023-05-21T11:07:46.626Z,36.17
2023-05-21T11:08:46.584Z,36.18
2023-05-21T11:09:46.586Z,36.18
2023-05-21T11:10:46.594Z,36.18
2023-05-21T11:11:46.635Z,36.16
2023-05-21T11:12:46.613Z,36.17
2023-05-21T11:13:46.619Z,36.17
2023-05-21T11:14:46.631Z,36.18
2023-05-21T11:15:46.682Z,36.19
2023-05-21T11:16:46.669Z,36.20
2023-05-21T11:17:46.665Z,36.18
2023-05-21T11:18:46.712Z,36.16
2023-05-21T11:19:46.657Z,36.17
2023-05-21T11:20:46.695Z,36.18
2023-05-21T11:21:46.681Z,36.18
2023-05-21T11:22:46.717Z,36.18
2023-05-21T11:23:46.754Z,36.18
2023-05-21T11:24:47.785Z,36.21
2023-05-21T11:25:46.678Z,36.20
2023-05-21T11:26:46.644Z,36.19
2023-05-21T11:27:46.603Z,36.22
2023-05-21T11:28:46.564Z,36.21
2023-05-21T11:29:46.527Z,36.21
2023-05-21T11:30:46.527Z,36.22
2023-05-21T11:31:46.617Z,36.20
2023-05-21T11:32:46.517Z,36.19
2023-05-21T11:33:46.378Z,36.20
2023-05-21T11:34:46.375Z,36.19
2023-05-21T11:35:46.303Z,36.21
2023-05-21T11:36:46.259Z,36.22
2023-05-21T11:37:46.223Z,36.23
2023-05-21T11:38:46.175Z,36.23
2023-05-21T11:39:46.160Z,36.23
2023-05-21T11:40:46.130Z,36.23
2023-05-21T11:41:46.068Z,36.24
2023-05-21T11:42:46.025Z,36.23
2023-05-21T11:43:45.990Z,36.23
2023-05-21T11:44:45.948Z,36.22
2023-05-21T11:45:45.884Z,36.22
2023-05-21T11:46:45.850Z,36.22
2023-05-21T11:47:45.828Z,36.24
2023-05-21T11:48:45.741Z,36.22
2023-05-21T11:49:45.697Z,36.25
2023-05-21T11:50:45.684Z,36.23
2023-05-21T11:51:45.612Z,36.24
2023-05-21T11:52:45.598Z,36.22
2023-05-21T11:53:45.561Z,36.25
2023-05-21T11:54:45.563Z,36.27
2023-05-21T11:55:45.647Z,36.26
2023-05-21T11:56:45.587Z,36.27
2023-05-21T11:57:45.602Z,36.24
2023-05-21T11:58:45.610Z,36.26
2023-05-21T11:59:45.619Z,36.24
2023-05-21T12:00:45.629Z,36.26
2023-05-21T12:01:45.636Z,36.24
2023-05-21T12:02:45.757Z,36.24
2023-05-21T12:03:45.694Z,36.28
2023-05-21T12:04:45.659Z,36.26
2023-05-21T12:05:45.718Z,36.28
2023-05-21T12:06:45.689Z,36.28
2023-05-21T12:07:45.685Z,36.31
2023-05-21T12:08:45.693Z,36.31
2023-05-21T12:09:45.705Z,36.30
2023-05-21T12:10:46.250Z,36.31
2023-05-21T12:11:45.791Z,36.31
2023-05-21T12:12:54.812Z,36.31
2023-05-21T12:13:45.718Z,36.30
2023-05-21T12:14:45.647Z,36.28
2023-05-21T12:15:45.591Z,36.30
2023-05-21T12:16:45.564Z,36.29
2023-05-21T12:17:45.552Z,36.28
2023-05-21T12:18:45.487Z,36.27
2023-05-21T12:19:45.414Z,36.30
2023-05-21T12:20:45.361Z,36.30
2023-05-21T12:21:45.312Z,36.31
2023-05-21T12:22:45.278Z,36.31
2023-05-21T12:23:45.214Z,36.31
2023-05-21T12:24:45.192Z,36.29
2023-05-21T12:25:45.118Z,36.28
2023-05-21T12:26:45.081Z,36.31
2023-05-21T12:27:45.079Z,36.29
2023-05-21T12:28:44.972Z,36.30
2023-05-21T12:29:44.931Z,36.30
2023-05-21T12:30:44.873Z,36.27
2023-05-21T12:31:44.861Z,36.24
2023-05-21T12:32:44.879Z,36.25
2023-05-21T12:33:44.736Z,36.28
2023-05-21T12:34:44.703Z,36.29
2023-05-21T12:35:44.749Z,36.31
2023-05-21T12:36:44.613Z,36.35
2023-05-21T12:37:44.560Z,36.35
2023-05-21T12:38:44.499Z,36.36
2023-05-21T12:39:44.467Z,36.38
2023-05-21T12:40:44.471Z,36.37
2023-05-21T12:41:44.473Z,36.38
2023-05-21T12:42:44.483Z,36.36
2023-05-21T12:43:44.531Z,36.39
2023-05-21T12:44:44.514Z,36.40
2023-05-21T12:45:44.557Z,36.43
2023-05-21T12:46:44.577Z,36.40
2023-05-21T12:47:44.581Z,36.44
2023-05-21T12:48:44.607Z,36.43
2023-05-21T12:49:44.563Z,36.43
2023-05-21T12:50:44.583Z,36.45
2023-05-21T12:51:44.597Z,36.45